Stations météo

réclame
Mon MeteoGroup
Gielas, Suède (2110): Température de l'air & dewpoint: 13.02.2020 22:00:00 - 19.02.2020 22:00:00 (CET)Gielas, Suède (2110): Vitesse du vent & gusts: 13.02.2020 22:00:00 - 19.02.2020 22:00:00 (CET)Gielas, Suède (2110): Direction du vent: 13.02.2020 22:00:00 - 19.02.2020 22:00:00 (CET)Gielas, Suède (2110): visibility: 13.02.2020 22:00:00 - 19.02.2020 22:00:00 (CET)Gielas, Suède (2110): Quantités de précipitations: 13.02.2020 22:00:00 - 19.02.2020 22:00:00 (CET)
Date & Time tt [°C] td [°C] ff [km/h] ff [knt] fx [km/h] fx [knt] dd vv [km] rr [mm]
19.02.2020 22:00:00 -19,7 -21,9 0 0 8 4 N 50 0,0
19.02.2020 21:00:00 -16,7 -18,6 4 2 6 4 E 50 0,0
19.02.2020 20:00:00 -15,0 -16,7 0 0 4 2 N 24 0,0
19.02.2020 19:00:00 -15,5 -17,3 3 1 11 6 N 49 0,0
19.02.2020 18:00:00 -14,9 -16,7 4 2 10 6 W 50 0,0
19.02.2020 17:00:00 -13,4 -15,1 4 2 6 4 NNE 50 0,0
19.02.2020 16:00:00 -9,8 -12,8 3 2 5 3 E 50 0,0
19.02.2020 15:00:00 -7,2 -11,4 3 2 9 5 ESE 50 0,0
19.02.2020 14:00:00 -6,7 -12,4 8 4 11 6 E 46 0,0
19.02.2020 13:00:00 -6,8 -11,5 4 2 11 6 E 42 0,0
19.02.2020 12:00:00 -7,3 -11,5 3 1 6 3 SSE 39 0,0
19.02.2020 11:00:00 -9,9 -11,2 6 3 10 5 NNE 34 0,0
19.02.2020 10:00:00 -13,2 -14,5 3 2 8 4 E 44 0,0
19.02.2020 09:00:00 -15,2 -16,9 3 1 9 5 NNW 39 0,0
19.02.2020 08:00:00 -15,3 -16,6 5 3 14 8 W 50 0,0
19.02.2020 07:00:00 -16,8 -18,6 5 3 10 6 WSW 50 0,0
19.02.2020 06:00:00 -14,6 -15,9 4 2 11 6 SW 3,5 0,1
19.02.2020 05:00:00 -13,1 -14,8 3 2 18 10 W 36 0,0
19.02.2020 04:00:00 -12,9 -14,2 9 5 17 9 W 28 0,0
19.02.2020 03:00:00 -9,1 -10,6 0 0 14 8 N 37 0,0
19.02.2020 02:00:00 -6,2 -9,2 5 3 18 10 W 40 0,0
19.02.2020 01:00:00 -5,2 -8,3 5 3 16 8 N 48 0,0
19.02.2020 00:00:00 -4,9 -7,7 7 4 25 13 W 42 0,0
18.02.2020 23:00:00 -3,5 -7,3 11 6 25 14 NW 50 0,0
18.02.2020 22:00:00 -2,6 -5,9 11 6 24 13 NW 33 0,0
18.02.2020 21:00:00 -1,9 -6,3 11 6 27 15 WNW 42 0,0
18.02.2020 20:00:00 -2,1 -6,5 11 6 31 17 WNW 50 0,0
18.02.2020 19:00:00 -2,6 -5,9 12 6 23 13 W 45 0,0
18.02.2020 18:00:00 -2,5 -5,0 12 6 32 17 W 50 -
18.02.2020 17:00:00 -1,4 -4,1 11 6 31 17 WNW 50 0,0
18.02.2020 16:00:00 -0,7 -3,9 7 4 35 19 W 50 0,0
18.02.2020 15:00:00 0,4 -2,1 16 9 34 18 WNW 50 0,6
18.02.2020 14:00:00 2,6 -2,3 15 8 31 17 W 20 0,0
18.02.2020 13:00:00 1,8 -2,7 13 7 41 22 WSW 40 0,0
18.02.2020 12:00:00 1,6 -3,1 12 7 45 25 W 50 0,0
18.02.2020 11:00:00 0,5 -3,1 13 7 40 22 WSW 30 0,0
18.02.2020 10:00:00 0,7 -2,9 13 7 36 19 W 50 0,2
18.02.2020 09:00:00 0,2 -2,7 8 4 32 17 WSW 13 0,0
18.02.2020 08:00:00 -0,5 -3,4 9 5 32 17 WSW 50 -
18.02.2020 07:00:00 -0,2 -2,4 11 6 31 17 WSW 37 0,0
18.02.2020 06:00:00 0,5 -2,2 14 8 44 24 W 43 0,0
18.02.2020 05:00:00 -0,4 -2,5 11 6 31 17 W 50 0,0
18.02.2020 04:00:00 -1,0 -1,4 6 3 27 15 WSW 4,7 0,0
18.02.2020 03:00:00 -6,6 -7,4 5 3 11 6 SW 1,6 0,1
18.02.2020 02:00:00 -7,6 -8,7 4 2 11 6 W 17 0,1
18.02.2020 01:00:00 -8,4 -9,5 3 2 8 5 ENE 7 0,0
18.02.2020 00:00:00 -9,3 -10,5 4 2 11 6 SE 3,4 0,1
17.02.2020 23:00:00 -9,7 -10,8 4 2 9 5 E 3,2 0,1
17.02.2020 22:00:00 -11,2 -12,5 3 1 10 5 WSW 50 0,0
17.02.2020 21:00:00 -9,8 -10,7 5 3 11 6 W 50 0,0
17.02.2020 20:00:00 -7,3 -8,2 8 4 14 7 WSW 50 0,0
17.02.2020 19:00:00 -5,6 -7,6 4 2 18 10 ENE 50 0,0
17.02.2020 18:00:00 -4,9 -7,3 7 4 - - SW 50 0,0
17.02.2020 17:00:00 -2,6 -6,8 6 4 15 8 SW 50 0,0
17.02.2020 16:00:00 -1,2 -6,2 5 3 20 11 N 50 0,0
17.02.2020 15:00:00 -0,5 -6,7 9 5 23 12 SW 50 0,0
17.02.2020 14:00:00 -0,5 -6,7 7 4 18 10 SW 47 0,0
17.02.2020 13:00:00 -0,6 -7,0 9 5 23 12 SW 50 0,0
17.02.2020 12:00:00 0,5 -6,8 9 5 19 10 SSW 49 0,0
17.02.2020 11:00:00 -0,5 -5,7 7 4 14 7 WSW 50 0,0
17.02.2020 10:00:00 -3,1 -6,4 9 5 - - WSW 50 0,0
17.02.2020 09:00:00 -3,7 -5,4 12 7 23 12 WSW 50 0,0
17.02.2020 08:00:00 -2,9 -4,6 5 3 18 10 SW 50 0,0
17.02.2020 07:00:00 -2,5 -3,6 8 4 18 10 SW 50 0,0
17.02.2020 06:00:00 -3,1 -3,8 8 4 19 10 SW 50 0,0
17.02.2020 05:00:00 -4,2 -5,0 5 3 16 9 W 49 0,0
17.02.2020 04:00:00 -4,9 -5,9 6 3 13 7 WSW 35 0,0
17.02.2020 03:00:00 -2,9 -3,3 7 4 15 8 SSW 50 0,0
17.02.2020 02:00:00 -4,1 -4,5 6 3 13 7 W 4,7 0,1
17.02.2020 01:00:00 -6,6 -7,4 8 4 14 8 WSW 50 0,0
17.02.2020 00:00:00 -5,4 -6,2 3 2 10 5 NNW 42 0,2
16.02.2020 23:00:00 -4,2 -4,7 6 4 16 8 W 3,1 0,1
16.02.2020 22:00:00 -5,7 -6,4 6 3 12 7 WSW 50 0,0
16.02.2020 21:00:00 -5,3 -5,8 4 2 9 5 SSW 45 0,0
16.02.2020 20:00:00 -4,6 -5,1 3 1 11 6 NW 50 0,0
16.02.2020 19:00:00 -4,2 -5,0 5 3 11 6 W 50 0,0
16.02.2020 18:00:00 -1,6 -2,3 4 2 10 5 NE 50 0,0
16.02.2020 17:00:00 -1,5 -2,9 4 2 13 7 ENE 50 0,0
16.02.2020 16:00:00 -0,3 -1,7 4 2 19 10 SW 50 0,0
16.02.2020 15:00:00 0,9 -1,3 9 5 22 12 SSW 50 0,0
16.02.2020 14:00:00 1,2 -0,6 6 3 15 8 SW 50 0,2
16.02.2020 13:00:00 0,7 -0,3 7 4 19 10 SW 2,7 0,2
16.02.2020 12:00:00 0,0 -0,7 11 6 23 13 SSW 1,8 0,4
16.02.2020 11:00:00 0,4 -1,0 5 3 18 10 SSW 8 0,1
16.02.2020 10:00:00 0,4 -0,7 5 3 31 17 WSW 4,9 0,3
16.02.2020 09:00:00 -0,7 -1,3 14 7 36 19 SE 0,8 0,8
16.02.2020 08:00:00 -1,1 -1,8 16 9 35 19 SE 1,0 0,8
16.02.2020 07:00:00 -1,8 -2,6 18 10 47 25 ESE 0,9 0,4
16.02.2020 06:00:00 -1,3 -4,3 24 13 59 32 SE 6 0,0
16.02.2020 05:00:00 -1,2 -4,0 14 7 39 21 E 38 0,1
16.02.2020 04:00:00 -0,8 -4,9 11 6 37 20 SE 22 0,0
16.02.2020 03:00:00 -0,9 -6,9 11 6 29 16 SE 50 0,0
16.02.2020 02:00:00 -3,8 -5,6 7 4 19 10 SE 30 0,0
16.02.2020 01:00:00 -8,5 -9,3 4 2 11 6 E 19 0,0
16.02.2020 00:00:00 -6,1 -7,5 3 2 20 11 S 22 0,0
15.02.2020 23:00:00 -5,3 -6,1 6 3 - - NNW 21 0,0
15.02.2020 22:00:00 -6,1 -7,5 5 3 16 8 E 15 0,0
15.02.2020 21:00:00 -4,0 -6,0 6 3 18 10 WSW 14 0,0
15.02.2020 20:00:00 -1,0 -4,7 8 4 27 15 SSW 14 0,0
15.02.2020 19:00:00 -0,9 -4,3 6 3 35 19 SSW 15 0,0
15.02.2020 18:00:00 0,3 -2,4 5 3 32 17 SW 15 0,0
15.02.2020 17:00:00 0,5 -2,2 15 8 32 18 WSW 23 0,0
15.02.2020 16:00:00 0,9 -2,3 5 3 22 12 SSW 50 0,0
15.02.2020 15:00:00 0,4 -3,2 8 4 30 16 WSW 50 0,0
15.02.2020 14:00:00 -1,2 -3,4 10 5 29 16 SW 3,8 0,1
15.02.2020 13:00:00 -1,5 -4,7 12 6 30 16 WSW 26 0,0
15.02.2020 12:00:00 -2,3 -4,5 13 7 29 15 SW 21 0,0
15.02.2020 11:00:00 -3,8 -5,5 10 5 17 9 SW 29 0,0
15.02.2020 10:00:00 -6,5 -7,7 4 2 16 9 WSW 7 0,2
15.02.2020 09:00:00 -8,6 -9,9 3 2 13 7 N 21 0,0
15.02.2020 08:00:00 -9,0 -10,1 3 1 6 4 ENE 1,3 0,3
15.02.2020 07:00:00 -9,6 -11,1 3 1 10 5 E 5 0,2
15.02.2020 06:00:00 -10,8 -12,0 5 3 14 8 NNE 6 0,0
15.02.2020 05:00:00 -10,5 -11,4 2 1 10 5 WNW 15 0,0
15.02.2020 04:00:00 -9,5 -10,8 0 0 9 5 N 50 0,0
15.02.2020 03:00:00 -10,5 -11,8 5 3 8 5 NNE 50 0,0
15.02.2020 02:00:00 -12,3 -13,5 3 2 10 5 W 50 0,0
15.02.2020 01:00:00 -12,8 -14,1 3 2 9 5 N 50 0,0
15.02.2020 00:00:00 -14,2 -16,2 4 2 8 5 W 50 0,0
14.02.2020 23:00:00 -14,5 -16,3 3 2 11 6 WNW 50 0,0
14.02.2020 22:00:00 -15,3 -17,1 3 2 6 4 WNW 50 0,0
14.02.2020 21:00:00 -14,9 -16,6 3 1 11 6 SSW 50 0,0
14.02.2020 20:00:00 -10,9 -11,8 6 3 12 7 WNW 50 0,0
14.02.2020 19:00:00 -14,1 -16,1 6 3 12 6 WSW 50 0,0
14.02.2020 18:00:00 -12,4 -13,6 5 3 8 4 WNW 50 0,0
14.02.2020 17:00:00 -9,5 -10,6 5 3 10 5 ESE 50 0,0
14.02.2020 16:00:00 -6,8 -9,4 6 3 16 9 W 50 0,0
14.02.2020 15:00:00 -3,8 -7,6 7 4 23 13 WSW 11 0,0
14.02.2020 14:00:00 -3,9 -7,8 13 7 26 14 SW 49 0,0
14.02.2020 13:00:00 -7,1 -8,2 8 4 16 9 WSW 10 0,0
14.02.2020 12:00:00 -6,7 -7,5 3 2 10 5 SSW 28 0,0
14.02.2020 11:00:00 -12,0 -13,3 4 2 21 12 SE 7 0,0
14.02.2020 10:00:00 -17,0 -18,8 2 1 14 7 E 29 0,0
14.02.2020 09:00:00 -17,5 -18,9 9 5 14 7 W 50 0,0
14.02.2020 08:00:00 -17,4 -18,9 4 2 9 5 E 50 0,0
14.02.2020 07:00:00 -15,8 -17,3 4 2 9 5 E 50 0,0
14.02.2020 06:00:00 -17,6 -19,6 8 5 12 6 WSW 46 0,0
14.02.2020 05:00:00 -14,2 -15,6 4 2 12 6 WSW 39 0,0
14.02.2020 04:00:00 -16,4 -18,6 4 2 9 5 ESE 50 0,0
14.02.2020 03:00:00 -14,9 -16,4 5 3 11 6 W 50 0,0
14.02.2020 02:00:00 -12,6 -13,8 4 2 8 4 E 17 -
14.02.2020 01:00:00 -12,6 -14,0 3 1 10 5 SSW 50 0,0
14.02.2020 00:00:00 -11,2 -12,1 4 2 9 5 W 47 0,0
13.02.2020 23:00:00 -8,4 -9,5 5 3 11 6 W 48 -
13.02.2020 22:00:00 -7,6 -9,7 5 3 10 6 SW 50 0,0

tt = Température de l'air
td = dewpoint
ff = Vitesse du vent
fx = gusts
dd = Direction du vent
vv = visibility
rr = Quantités de précipitations

stations d'obs. à proximité